Time;durP1;ratioP1;P1;durP2;ratioP2;P2;SDS_P1;SDS_P2;PMS_P1;PMS_P2;Temp;Humidity;BMP_temperature;BMP_pressure;BME280_temperature;BME280_humidity;BME280_pressure;Samples;Min_cycle;Max_cycle;Signal;HPM_P1;HPM_P2
2024/04/15 05:45:10;;;;;;;6.90;2.20;;;;;;;13.85;100.00;99127.79;103803;1289;601559;-56
2024/04/15 05:47:37;;;;;;;6.20;2.80;;;;;;;14.20;100.00;99129.06;105929;1266;64669;-57
2024/04/15 05:50:05;;;;;;;4.40;1.60;;;;;;;14.26;100.00;99126.55;105896;1266;59873;-56
2024/04/15 05:52:33;;;;;;;2.70;1.80;;;;;;;14.35;100.00;99124.52;105409;1266;73313;-56
2024/04/15 05:55:00;;;;;;;3.20;1.70;;;;;;;14.42;100.00;99124.30;105577;1266;70357;-57
2024/04/15 05:57:28;;;;;;;4.50;1.90;;;;;;;14.44;100.00;99124.83;105736;1266;75335;-56
2024/04/15 05:59:56;;;;;;;3.00;1.60;;;;;;;14.49;100.00;99125.71;105822;1262;380505;-57
2024/04/15 06:02:24;;;;;;;3.50;1.70;;;;;;;14.56;100.00;99123.84;105875;1263;59985;-56
2024/04/15 06:04:51;;;;;;;5.10;1.50;;;;;;;14.63;100.00;99123.56;106130;1263;72814;-56
2024/04/15 06:07:19;;;;;;;3.70;1.60;;;;;;;14.68;100.00;99117.96;105894;1263;70035;-57
2024/04/15 06:09:46;;;;;;;2.30;1.40;;;;;;;14.77;100.00;99119.27;106074;1263;71822;-56
2024/04/15 06:12:14;;;;;;;2.80;1.50;;;;;;;14.85;99.65;99116.66;106057;1263;61659;-56
2024/04/15 06:14:41;;;;;;;2.00;1.50;;;;;;;14.92;100.00;99121.96;105865;1262;59971;-56
2024/04/15 06:17:09;;;;;;;5.10;2.00;;;;;;;14.99;100.00;99122.16;105998;1263;73959;-56
2024/04/15 06:19:38;;;;;;;;;;;;;;;15.06;98.93;99126.63;106077;1262;69359;-56
2024/04/15 06:22:05;;;;;;;2.40;1.60;;;;;;;15.08;86.90;99121.36;106176;1263;72738;-56
2024/04/15 06:24:35;;;;;;;1.70;1.40;;;;;;;15.14;85.21;99121.70;105879;1264;62707;-56
2024/04/15 06:27:03;;;;;;;4.00;1.50;;;;;;;15.21;81.21;99122.98;105789;1263;60797;-55
2024/04/15 06:29:30;;;;;;;;;;;;;;;15.23;73.92;99123.52;106281;1259;73996;-56
2024/04/15 06:31:58;;;;;;;2.20;1.20;;;;;;;15.31;71.44;99121.95;106638;1259;69375;-57
2024/04/15 06:34:26;;;;;;;7.10;2.20;;;;;;;15.38;74.92;99115.05;106635;1260;71402;-57
2024/04/15 06:36:55;;;;;;;4.90;1.30;;;;;;;15.40;73.25;99121.45;106386;1259;61424;-57
2024/04/15 06:39:23;;;;;;;5.40;1.30;;;;;;;15.50;72.40;99111.56;106260;1259;59996;-56
2024/04/15 06:41:50;;;;;;;2.90;1.30;;;;;;;15.57;72.06;99112.98;107223;1256;73674;-56
2024/04/15 06:44:18;;;;;;;4.10;1.40;;;;;;;15.63;71.28;99111.68;107083;1253;69662;-56
2024/04/15 06:46:46;;;;;;;;;;;;;;;15.65;70.48;99104.65;107271;1253;72954;-56
2024/04/15 06:49:14;;;;;;;2.50;1.70;;;;;;;15.66;70.62;99101.08;107176;1253;60428;-56
2024/04/15 06:51:46;;;;;;;5.00;1.80;;;;;;;15.66;73.34;99091.34;107387;1251;60479;-56
2024/04/15 06:54:26;;;;;;;9.10;2.20;;;;;;;15.70;74.47;99088.39;107282;1257;74231;-56
2024/04/15 06:56:54;;;;;;;3.90;2.00;;;;;;;15.81;77.22;99089.00;106744;1254;72338;-58
2024/04/15 06:59:21;;;;;;;3.70;2.10;;;;;;;15.86;78.84;99091.51;107204;1252;72485;-56
2024/04/15 07:01:49;;;;;;;4.00;1.70;;;;;;;15.85;81.02;99091.95;106793;1253;60923;-56
2024/04/15 07:04:17;;;;;;;;;;;;;;;15.85;80.35;99088.94;107110;1253;60531;-56
2024/04/15 07:06:44;;;;;;;5.00;2.20;;;;;;;15.93;79.80;99087.96;106563;1253;74959;-56
2024/04/15 07:09:15;;;;;;;5.10;1.90;;;;;;;15.99;79.59;99085.45;107031;1253;69500;-56
2024/04/15 07:11:42;;;;;;;2.70;1.80;;;;;;;15.98;79.55;99083.56;107110;1253;71426;-57
2024/04/15 07:14:10;;;;;;;3.70;1.70;;;;;;;15.93;80.76;99074.39;107175;1252;60562;-56
2024/04/15 07:16:38;;;;;;;3.40;1.70;;;;;;;16.08;80.77;99086.36;106924;1252;60418;-56
2024/04/15 07:19:06;;;;;;;3.00;1.70;;;;;;;16.17;81.09;99092.19;107354;1252;73645;-57
2024/04/15 07:21:34;;;;;;;4.20;2.10;;;;;;;16.25;80.84;99093.00;107157;1251;71720;-56
2024/04/15 07:24:01;;;;;;;2.90;1.80;;;;;;;16.23;80.53;99083.48;107092;1254;72478;-56
2024/04/15 07:26:29;;;;;;;5.80;1.80;;;;;;;16.19;82.13;99077.77;107244;1253;61244;-56
2024/04/15 07:28:59;;;;;;;8.60;2.90;;;;;;;16.30;84.45;99069.80;106686;1254;60457;-56
2024/04/15 07:31:26;;;;;;;3.00;2.40;;;;;;;16.39;83.65;99065.66;106766;1253;74313;-56
2024/04/15 07:33:54;;;;;;;11.10;2.50;;;;;;;16.53;83.67;99062.27;106824;1253;71998;-57
2024/04/15 07:36:23;;;;;;;3.30;2.00;;;;;;;16.49;86.97;99059.00;106896;1253;71619;-56
2024/04/15 07:38:50;;;;;;;;;;;;;;;16.62;86.55;99057.30;106437;1252;60504;-56
2024/04/15 07:41:18;;;;;;;3.00;2.30;;;;;;;16.74;87.82;99052.66;107114;1253;60601;-56
2024/04/15 07:43:45;;;;;;;6.30;2.20;;;;;;;16.79;86.39;99044.73;106907;1254;73663;-56
2024/04/15 07:46:13;;;;;;;4.90;2.00;;;;;;;16.91;83.39;99029.64;107186;1254;70349;-56
2024/04/15 07:48:41;;;;;;;3.10;1.70;;;;;;;16.97;77.75;99022.59;107043;1254;72435;-56
2024/04/15 07:51:09;;;;;;;5.50;1.90;;;;;;;17.01;77.25;99012.78;106767;1253;61802;-58
2024/04/15 07:53:36;;;;;;;4.50;2.10;;;;;;;17.04;77.67;99014.59;107519;1254;60734;-55
2024/04/15 07:56:04;;;;;;;6.00;2.20;;;;;;;17.19;79.38;99017.55;107071;1254;72475;-56
2024/04/15 07:58:34;;;;;;;6.90;2.80;;;;;;;17.31;76.67;99009.27;107368;1252;69208;-55
2024/04/15 08:01:01;;;;;;;2.70;2.00;;;;;;;17.32;76.12;99006.53;106786;1253;73640;-56
2024/04/15 08:03:29;;;;;;;4.10;2.00;;;;;;;17.43;79.28;99008.10;107343;1253;60467;-56
2024/04/15 08:05:56;;;;;;;3.30;1.90;;;;;;;17.58;78.14;99007.41;107215;1253;60130;-54
2024/04/15 08:08:24;;;;;;;8.10;1.90;;;;;;;17.68;75.99;99006.30;107232;1253;73724;-53
2024/04/15 08:10:51;;;;;;;5.90;1.90;;;;;;;17.80;70.99;99002.59;106925;1253;70088;-54
2024/04/15 08:13:19;;;;;;;2.30;1.80;;;;;;;17.88;67.70;98998.95;107073;1254;73419;-54
2024/04/15 08:15:46;;;;;;;6.90;2.40;;;;;;;17.89;69.33;98994.10;107514;1251;63683;-54
2024/04/15 08:18:15;;;;;;;6.70;2.00;;;;;;;17.88;65.95;98992.44;107259;1253;62616;-55
2024/04/15 08:20:42;;;;;;;5.20;1.60;;;;;;;17.91;61.82;98995.92;107088;1253;72902;-54
2024/04/15 08:23:10;;;;;;;6.90;1.20;;;;;;;17.93;59.33;98996.45;107226;1253;69948;-54
2024/04/15 08:25:37;;;;;;;4.30;1.40;;;;;;;17.90;57.02;98997.72;106801;1252;72683;-54
2024/04/15 08:28:05;;;;;;;7.70;2.40;;;;;;;17.90;56.70;98988.48;106879;1253;61481;-54
2024/04/15 08:30:35;;;;;;;2.30;1.40;;;;;;;18.01;58.22;99008.17;107286;1256;59723;-54
2024/04/15 08:33:03;;;;;;;2.10;1.30;;;;;;;18.12;58.28;98996.11;107006;1254;72650;-54
2024/04/15 08:35:31;;;;;;;5.70;1.70;;;;;;;18.18;58.48;98992.19;106991;1253;69951;-54
2024/04/15 08:37:58;;;;;;;4.10;1.30;;;;;;;18.29;56.62;98986.70;107525;1253;73233;-54
2024/04/15 08:40:26;;;;;;;5.60;1.40;;;;;;;18.42;55.31;98981.15;107242;1254;60975;-55
2024/04/15 08:42:53;;;;;;;9.40;1.70;;;;;;;18.43;54.74;98981.87;106788;1259;60689;-54
2024/04/15 08:45:27;;;;;;;4.00;1.10;;;;;;;18.49;54.56;98977.55;107195;1253;72670;-54
2024/04/15 08:47:57;;;;;;;3.90;1.10;;;;;;;18.61;56.57;98980.73;107271;1254;69449;-54
2024/04/15 08:50:26;;;;;;;4.60;1.30;;;;;;;18.64;54.62;98982.79;107534;1252;73160;-54
2024/04/15 08:52:54;;;;;;;2.70;1.30;;;;;;;18.70;54.44;98979.27;107006;1254;60529;-55
2024/04/15 08:55:25;;;;;;;4.00;1.90;;;;;;;18.74;54.67;98979.98;107134;1252;60556;-54
2024/04/15 08:57:54;;;;;;;;;;;;;;;18.72;54.11;98976.42;107130;1253;76397;-54
2024/04/15 09:00:22;;;;;;;2.70;1.60;;;;;;;18.67;54.90;98965.23;106693;1259;70304;-54
2024/04/15 09:02:53;;;;;;;5.30;1.50;;;;;;;18.76;55.50;98970.23;107113;1254;73472;-53
2024/04/15 09:05:21;;;;;;;5.00;1.40;;;;;;;18.73;53.76;98968.34;107033;1257;60344;-54
2024/04/15 09:07:49;;;;;;;;;;;;;;;18.74;53.80;98972.50;107109;1253;60450;-55
2024/04/15 09:10:17;;;;;;;3.50;1.30;;;;;;;18.84;54.85;98978.02;106935;1252;72644;-54
2024/04/15 09:12:45;;;;;;;10.20;1.50;;;;;;;18.88;53.70;98983.73;107077;1253;69317;-55
2024/04/15 09:15:14;;;;;;;3.10;1.60;;;;;;;18.81;53.74;98988.59;107259;1254;75893;-54
2024/04/15 09:17:42;;;;;;;9.00;1.50;;;;;;;18.68;52.91;99005.48;106940;1254;60539;-54
2024/04/15 09:20:10;;;;;;;2.40;1.40;;;;;;;18.49;53.65;99013.91;106856;1252;60329;-54
2024/04/15 09:22:38;;;;;;;6.50;2.10;;;;;;;18.32;53.75;99009.63;107076;1254;73815;-57
2024/04/15 09:25:06;;;;;;;4.70;1.30;;;;;;;18.12;54.28;98997.13;106842;1253;68519;-54
2024/04/15 09:27:34;;;;;;;4.80;1.60;;;;;;;18.14;54.81;98999.15;107023;1253;73073;-54
2024/04/15 09:30:03;;;;;;;6.00;1.70;;;;;;;18.05;56.85;99000.02;107300;1253;60466;-54
2024/04/15 09:32:31;;;;;;;3.90;1.80;;;;;;;18.08;57.78;99007.57;106823;1254;60902;-54
2024/04/15 09:34:59;;;;;;;3.00;1.60;;;;;;;18.27;57.35;99006.49;106891;1254;76605;-54
2024/04/15 09:37:27;;;;;;;6.00;1.40;;;;;;;18.20;56.29;99002.50;107202;1253;68199;-57
2024/04/15 09:39:55;;;;;;;;;;;;;;;18.09;57.16;99006.98;107127;1254;73298;-54
2024/04/15 09:42:22;;;;;;;7.10;2.10;;;;;;;18.07;57.88;99008.52;107084;1253;60367;-54
2024/04/15 09:44:50;;;;;;;4.50;2.00;;;;;;;18.06;56.80;98998.23;106700;1259;61112;-54
2024/04/15 09:47:18;;;;;;;;;;;;;;;18.08;57.35;98988.80;107239;1251;74251;-54
2024/04/15 09:49:46;;;;;;;5.10;3.20;;;;;;;18.06;57.62;98982.41;107080;1253;68421;-55
2024/04/15 09:52:22;;;;;;;8.40;3.20;;;;;;;18.07;55.92;98977.73;107101;1254;72408;-54
2024/04/15 09:54:53;;;;;;;8.80;2.30;;;;;;;18.11;54.38;98990.36;106784;1253;61355;-54
2024/04/15 09:57:23;;;;;;;5.10;1.60;;;;;;;17.93;54.78;98994.66;106817;1253;61378;-55
2024/04/15 09:59:57;;;;;;;5.20;1.50;;;;;;;17.89;55.72;98988.95;107199;1254;74499;-54
2024/04/15 10:02:34;;;;;;;7.90;2.70;;;;;;;17.81;55.95;98995.41;106749;1254;69529;-54
2024/04/15 10:05:30;;;;;;;4.50;1.50;;;;;;;17.78;56.19;98986.98;107169;1254;75503;-54
2024/04/15 10:07:58;;;;;;;3.70;1.50;;;;;;;17.71;55.97;98979.76;107067;1256;63090;-54
2024/04/15 10:10:26;;;;;;;5.50;1.80;;;;;;;17.64;56.99;98987.50;107350;1254;61369;-54
2024/04/15 10:12:55;;;;;;;3.30;1.80;;;;;;;17.59;57.36;98992.98;107019;1253;75857;-54
2024/04/15 10:15:23;;;;;;;3.90;1.90;;;;;;;17.57;58.12;98987.33;106959;1254;70393;-53
2024/04/15 10:18:14;;;;;;;6.50;1.70;;;;;;;17.42;57.96;98978.08;106784;1256;73141;-54
2024/04/15 10:20:43;;;;;;;3.80;2.00;;;;;;;17.41;57.85;98968.80;107045;1254;61304;-54
2024/04/15 10:23:15;;;;;;;10.70;2.00;;;;;;;17.33;58.08;98959.52;107100;1253;61258;-54
2024/04/15 10:25:42;;;;;;;14.30;2.00;;;;;;;17.18;58.82;98938.27;106432;1253;76833;-54
2024/04/15 10:28:11;;;;;;;12.10;2.20;;;;;;;17.12;59.66;98927.05;106880;1252;68993;-54
2024/04/15 10:30:40;;;;;;;7.20;1.90;;;;;;;17.15;60.80;98910.54;107114;1254;72767;-53
2024/04/15 10:33:10;;;;;;;9.10;1.80;;;;;;;17.26;60.61;98899.16;106995;1254;60598;-54
2024/04/15 10:35:40;;;;;;;3.70;1.60;;;;;;;17.46;60.51;98907.77;106916;1252;61990;-54
2024/04/15 10:38:08;;;;;;;4.30;1.80;;;;;;;17.29;60.91;98897.30;107286;1252;74556;-54
2024/04/15 10:40:46;;;;;;;8.30;2.20;;;;;;;17.32;60.67;98900.26;106756;1256;68720;-54
2024/04/15 10:43:16;;;;;;;5.30;1.50;;;;;;;17.24;61.13;98922.55;106700;1253;72758;-54
2024/04/15 10:45:47;;;;;;;7.50;1.80;;;;;;;17.20;63.83;98908.17;107437;1254;60077;-54
2024/04/15 10:48:15;;;;;;;7.30;1.80;;;;;;;17.12;70.41;98896.97;107345;1254;61988;-54
2024/04/15 10:50:43;;;;;;;9.00;1.50;;;;;;;16.91;78.15;98902.20;107115;1253;75535;-54
2024/04/15 10:53:10;;;;;;;5.10;1.40;;;;;;;16.76;87.55;98898.95;107471;1251;68587;-54
2024/04/15 10:55:39;;;;;;;2.30;1.60;;;;;;;16.58;94.76;98895.90;107130;1258;75091;-54
2024/04/15 10:58:09;;;;;;;5.80;1.80;;;;;;;16.42;99.74;98914.20;107110;1256;61422;-54
2024/04/15 11:00:36;;;;;;;4.80;1.40;;;;;;;16.33;100.00;98918.77;106992;1253;60727;-54
2024/04/15 11:03:05;;;;;;;3.10;1.50;;;;;;;16.30;100.00;98930.30;106722;1252;76543;-54
2024/04/15 11:05:33;;;;;;;3.30;1.90;;;;;;;16.14;100.00;98931.73;106608;1253;68977;-55
2024/04/15 11:08:03;;;;;;;6.40;1.80;;;;;;;16.18;100.00;98943.09;107436;1254;73197;-53
2024/04/15 11:10:32;;;;;;;5.90;1.70;;;;;;;16.00;100.00;98960.57;107079;1253;61663;-54
2024/04/15 11:12:59;;;;;;;4.60;1.50;;;;;;;15.87;100.00;98957.48;107142;1253;61312;-54
2024/04/15 11:15:27;;;;;;;4.50;1.80;;;;;;;15.70;100.00;98967.38;106841;1254;74706;-54
2024/04/15 11:17:55;;;;;;;5.00;1.40;;;;;;;15.41;100.00;98965.23;107231;1252;69870;-55
2024/04/15 11:20:23;;;;;;;2.30;1.70;;;;;;;15.32;100.00;98973.17;107057;1254;73009;-54
2024/04/15 11:22:52;;;;;;;3.30;1.90;;;;;;;15.38;100.00;98961.25;106673;1257;60785;-54
2024/04/15 11:25:20;;;;;;;5.60;1.40;;;;;;;15.34;100.00;98925.50;106869;1253;61237;-53
2024/04/15 11:27:52;;;;;;;2.80;1.50;;;;;;;15.16;100.00;98929.67;106734;1254;73421;-54
2024/04/15 11:30:26;;;;;;;3.00;1.50;;;;;;;15.01;100.00;98941.14;107355;1254;70227;-54
2024/04/15 11:32:59;;;;;;;4.50;2.10;;;;;;;14.90;100.00;98960.83;107129;1257;72731;-55
2024/04/15 11:35:27;;;;;;;6.20;2.20;;;;;;;14.86;100.00;98980.20;106809;1258;61628;-54
2024/04/15 11:38:02;;;;;;;6.70;2.10;;;;;;;14.73;100.00;98978.27;106948;1252;60006;-54
2024/04/15 11:40:30;;;;;;;6.00;2.30;;;;;;;14.62;100.00;98963.89;107023;1254;74969;-54
2024/04/15 11:42:59;;;;;;;;;;;;;;;14.51;100.00;98968.11;106559;1256;68836;-54
2024/04/15 11:45:27;;;;;;;4.80;2.10;;;;;;;14.44;100.00;98956.98;104580;1257;72622;-54
2024/04/15 11:47:55;;;;;;;6.60;1.70;;;;;;;14.36;100.00;98935.46;104962;1254;61400;-54
2024/04/15 11:50:22;;;;;;;4.00;1.70;;;;;;;14.31;100.00;98941.62;105280;1254;60108;-54
2024/04/15 11:52:50;;;;;;;3.70;1.80;;;;;;;14.22;100.00;98953.73;104901;1263;73836;-54
2024/04/15 11:55:20;;;;;;;6.20;1.90;;;;;;;14.29;100.00;98969.50;104894;1254;70320;-55
2024/04/15 11:57:48;;;;;;;8.50;1.70;;;;;;;14.49;100.00;98970.03;105368;1256;72604;-55
2024/04/15 12:00:16;;;;;;;4.00;1.80;;;;;;;14.46;100.00;98982.10;105523;1259;61784;-54
2024/04/15 12:02:44;;;;;;;;;;;;;;;14.42;100.00;98981.30;105210;1253;61346;-55
2024/04/15 12:05:11;;;;;;;3.10;1.50;;;;;;;14.46;100.00;98985.77;104748;1251;74893;-54
2024/04/15 12:07:43;;;;;;;4.50;1.70;;;;;;;14.38;100.00;98975.35;104815;1258;69912;-54
2024/04/15 12:10:11;;;;;;;4.60;1.90;;;;;;;14.36;100.00;98966.53;104842;1254;72867;-54
2024/04/15 12:12:39;;;;;;;4.50;1.60;;;;;;;14.27;100.00;98937.67;105391;1254;61368;-53
2024/04/15 12:15:09;;;;;;;4.80;1.60;;;;;;;14.26;100.00;98924.92;105099;1256;61371;-54
2024/04/15 12:17:37;;;;;;;8.00;1.90;;;;;;;14.19;100.00;98903.36;105006;1252;75890;-54
2024/04/15 12:20:07;;;;;;;6.10;2.40;;;;;;;14.26;100.00;98898.80;105115;1256;69674;-53
2024/04/15 12:22:35;;;;;;;5.70;1.80;;;;;;;14.20;100.00;98900.65;105023;1256;72722;-54
2024/04/15 12:25:03;;;;;;;5.40;1.80;;;;;;;14.21;100.00;98902.50;106037;1254;62075;-54
2024/04/15 12:27:36;;;;;;;8.30;1.80;;;;;;;14.06;100.00;98896.85;105476;1256;61279;-54
2024/04/15 12:30:09;;;;;;;4.40;1.70;;;;;;;14.08;100.00;98901.48;105033;1254;74434;-54
2024/04/15 12:32:39;;;;;;;2.40;1.80;;;;;;;14.01;100.00;98894.05;105769;1256;68594;-54
2024/04/15 12:35:07;;;;;;;4.20;2.00;;;;;;;13.98;100.00;98901.61;104986;1253;73513;-54
2024/04/15 12:37:35;;;;;;;3.90;1.70;;;;;;;13.94;100.00;98902.73;105451;1254;62577;-55
2024/04/15 12:40:07;;;;;;;3.60;1.60;;;;;;;13.97;100.00;98895.13;104872;1254;60721;-54
2024/04/15 12:42:35;;;;;;;3.60;1.50;;;;;;;13.99;100.00;98882.73;104597;1256;74556;-54
2024/04/15 12:45:03;;;;;;;2.90;1.80;;;;;;;13.97;100.00;98893.58;104556;1254;72462;-54
2024/04/15 12:47:30;;;;;;;;;;;;;;;13.97;100.00;98906.44;105615;1259;72577;-54
2024/04/15 12:49:58;;;;;;;4.20;1.80;;;;;;;13.93;100.00;98891.58;105593;1254;62120;-55
2024/04/15 12:52:26;;;;;;;2.30;1.30;;;;;;;13.90;100.00;98884.21;104893;1256;61256;-55
2024/04/15 12:54:53;;;;;;;2.70;1.30;;;;;;;13.90;100.00;98872.95;105478;1257;75891;-54
2024/04/15 12:57:21;;;;;;;2.60;1.40;;;;;;;13.83;100.00;98852.41;106429;1254;69870;-55
2024/04/15 12:59:49;;;;;;;5.10;1.50;;;;;;;13.60;100.00;98846.43;105990;1257;72531;-54
2024/04/15 13:02:17;;;;;;;2.20;1.20;;;;;;;13.62;100.00;98846.84;105049;1255;62599;-53
2024/04/15 13:04:44;;;;;;;4.40;1.60;;;;;;;13.70;100.00;98839.77;105539;1261;62503;-54
2024/04/15 13:07:12;;;;;;;2.00;1.50;;;;;;;13.66;100.00;98846.02;104975;1257;75000;-53
2024/04/15 13:09:40;;;;;;;;;;;;;;;13.70;100.00;98854.94;104924;1258;70173;-53
2024/04/15 13:12:10;;;;;;;6.60;1.50;;;;;;;13.73;100.00;98855.25;105159;1257;72722;-53
2024/04/15 13:14:38;;;;;;;7.30;1.60;;;;;;;13.71;100.00;98833.41;105392;1252;61713;-53
2024/04/15 13:17:07;;;;;;;6.60;1.50;;;;;;;13.70;100.00;98832.02;104703;1256;61273;-56
2024/04/15 13:19:35;;;;;;;3.20;1.60;;;;;;;13.72;100.00;98817.48;105335;1254;74451;-54
2024/04/15 13:22:02;;;;;;;4.00;1.60;;;;;;;13.69;100.00;98798.46;104923;1257;69922;-54
2024/04/15 13:24:35;;;;;;;8.30;1.60;;;;;;;13.72;100.00;98798.99;105453;1257;73341;-54
2024/04/15 13:27:05;;;;;;;5.60;1.50;;;;;;;13.74;100.00;98803.23;104944;1257;61502;-54
2024/04/15 13:29:33;;;;;;;7.50;1.70;;;;;;;13.76;100.00;98803.05;104674;1255;61349;-56
2024/04/15 13:32:02;;;;;;;4.60;1.20;;;;;;;13.83;100.00;98794.16;105792;1254;74827;-54
2024/04/15 13:34:43;;;;;;;5.80;1.50;;;;;;;13.80;100.00;98792.93;104422;1275;70698;-56
2024/04/15 13:37:13;;;;;;;5.00;1.60;;;;;;;13.79;100.00;98787.22;105845;1255;72462;-54
2024/04/15 13:39:41;;;;;;;2.00;1.10;;;;;;;13.78;100.00;98805.06;105179;1256;61732;-54
2024/04/15 13:42:08;;;;;;;1.80;1.60;;;;;;;13.66;100.00;98810.27;104767;1257;61308;-53
2024/04/15 13:44:36;;;;;;;5.60;1.40;;;;;;;13.68;100.00;98820.02;104764;1269;74768;-54
2024/04/15 13:47:04;;;;;;;;;;;;;;;13.65;100.00;98810.02;104799;1255;69972;-55
2024/04/15 13:49:31;;;;;;;;;;;;;;;13.57;100.00;98825.86;104672;1256;71406;-54
2024/04/15 13:52:00;;;;;;;;;;;;;;;13.46;100.00;98819.06;104903;1260;61714;-54
2024/04/15 13:54:29;;;;;;;2.40;1.20;;;;;;;13.38;100.00;98806.38;104720;1258;61214;-56
2024/04/15 13:56:56;;;;;;;5.00;1.30;;;;;;;13.30;100.00;98798.27;105437;1257;73858;-55
2024/04/15 13:59:26;;;;;;;2.00;1.10;;;;;;;13.29;100.00;98796.73;105020;1270;72776;-55
2024/04/15 14:01:56;;;;;;;6.60;1.20;;;;;;;13.34;100.00;98796.96;104459;1256;73959;-54
2024/04/15 14:04:23;;;;;;;2.20;1.20;;;;;;;13.34;100.00;98794.32;104559;1252;61539;-54
2024/04/15 14:06:51;;;;;;;;;;;;;;;13.35;100.00;98795.67;104853;1255;61326;-56
2024/04/15 14:09:19;;;;;;;;;;;;;;;13.32;100.00;98796.91;104790;1254;74769;-54
2024/04/15 14:11:49;;;;;;;4.20;1.40;;;;;;;13.35;100.00;98791.42;104893;1257;69590;-54
2024/04/15 14:14:17;;;;;;;4.30;2.00;;;;;;;13.17;100.00;98794.73;105247;1257;72454;-54
2024/04/15 14:16:46;;;;;;;3.50;2.10;;;;;;;13.14;100.00;98789.81;104356;1257;61508;-54
2024/04/15 14:19:13;;;;;;;;;;;;;;;13.16;100.00;98793.21;104934;1256;61317;-54
2024/04/15 14:21:41;;;;;;;4.50;2.20;;;;;;;13.38;100.00;98792.98;104596;1261;75294;-55
2024/04/15 14:24:10;;;;;;;3.60;1.80;;;;;;;13.48;100.00;98788.48;104962;1256;69502;-54
2024/04/15 14:26:38;;;;;;;4.50;1.60;;;;;;;13.40;100.00;98787.92;104719;1256;72692;-55
2024/04/15 14:29:05;;;;;;;7.50;2.30;;;;;;;13.57;100.00;98791.71;104728;1255;61589;-54
2024/04/15 14:31:33;;;;;;;7.60;2.10;;;;;;;13.61;100.00;98792.32;104866;1265;61368;-54
2024/04/15 14:34:00;;;;;;;2.60;1.40;;;;;;;13.58;100.00;98796.08;105075;1254;75098;-54
2024/04/15 14:36:28;;;;;;;3.40;2.00;;;;;;;13.54;100.00;98799.15;104906;1256;69435;-54
2024/04/15 14:38:58;;;;;;;4.40;1.60;;;;;;;13.50;100.00;98803.60;104634;1256;72488;-55
2024/04/15 14:41:26;;;;;;;;;;;;;;;13.43;100.00;98812.87;105110;1256;61534;-54
2024/04/15 14:43:53;;;;;;;;;;;;;;;13.46;100.00;98801.42;105761;1256;61310;-53
2024/04/15 14:46:27;;;;;;;1.80;1.60;;;;;;;13.42;100.00;98800.31;105791;1254;75480;-54
2024/04/15 14:48:54;;;;;;;2.50;1.30;;;;;;;13.40;100.00;98784.27;104784;1257;69790;-53
2024/04/15 14:51:22;;;;;;;;;;;;;;;13.35;100.00;98787.91;105221;1257;72745;-54
2024/04/15 14:53:50;;;;;;;;;;;;;;;13.30;100.00;98804.25;105848;1253;61673;-54
2024/04/15 14:56:17;;;;;;;;;;;;;;;13.23;100.00;98787.61;104765;1257;61308;-54
2024/04/15 14:58:45;;;;;;;;;;;;;;;13.17;100.00;98759.20;105110;1271;73521;-54
2024/04/15 15:01:13;;;;;;;2.30;1.10;;;;;;;13.29;100.00;98759.25;104959;1256;69643;-54
2024/04/15 15:03:40;;;;;;;;;;;;;;;13.30;100.00;98755.34;105294;1256;72639;-55
2024/04/15 15:06:09;;;;;;;;;;;;;;;13.34;100.00;98744.30;104801;1254;61564;-55
2024/04/15 15:08:37;;;;;;;1.60;1.20;;;;;;;13.39;100.00;98724.66;105087;1253;61266;-58
2024/04/15 15:11:05;;;;;;;4.70;1.60;;;;;;;13.48;100.00;98716.61;105373;1257;73619;-58
2024/04/15 15:13:38;;;;;;;6.60;1.50;;;;;;;13.59;100.00;98723.23;105044;1255;69347;-58
2024/04/15 15:16:10;;;;;;;3.70;1.50;;;;;;;13.67;100.00;98734.13;104894;1252;74061;-54
2024/04/15 15:18:37;;;;;;;2.80;1.80;;;;;;;13.70;100.00;98737.31;105009;1253;61313;-54
2024/04/15 15:21:05;;;;;;;7.20;1.30;;;;;;;13.70;100.00;98733.41;105021;1257;61222;-52
2024/04/15 15:23:47;;;;;;;4.90;1.60;;;;;;;13.65;100.00;98731.63;104706;1257;74788;-55
2024/04/15 15:26:14;;;;;;;4.30;1.50;;;;;;;13.65;100.00;98730.77;105901;1257;70357;-55
2024/04/15 15:28:42;;;;;;;4.10;1.50;;;;;;;13.64;100.00;98725.05;105037;1254;73079;-54
2024/04/15 15:31:09;;;;;;;4.60;1.90;;;;;;;13.60;100.00;98727.39;105815;1253;62179;-55
2024/04/15 15:33:37;;;;;;;2.60;1.40;;;;;;;13.59;100.00;98739.77;105797;1257;61227;-55
2024/04/15 15:36:04;;;;;;;7.40;2.00;;;;;;;13.57;100.00;98733.06;105227;1254;74438;-55
2024/04/15 15:38:32;;;;;;;3.20;1.70;;;;;;;13.50;100.00;98726.70;105370;1259;69349;-58
2024/04/15 15:41:00;;;;;;;5.60;2.10;;;;;;;13.44;100.00;98727.31;105015;1258;71548;-54
2024/04/15 15:43:28;;;;;;;4.80;1.60;;;;;;;13.41;100.00;98715.11;105819;1253;61269;-55
2024/04/15 15:45:55;;;;;;;6.00;2.90;;;;;;;13.40;100.00;98702.70;104772;1256;61270;-55
2024/04/15 15:48:24;;;;;;;6.10;2.10;;;;;;;13.41;100.00;98703.75;105328;1259;74502;-55
2024/04/15 15:50:52;;;;;;;10.20;2.30;;;;;;;13.46;100.00;98707.08;105843;1257;69351;-55
2024/04/15 15:53:19;;;;;;;3.80;1.70;;;;;;;13.45;100.00;98711.36;104817;1257;72490;-54
2024/04/15 15:55:48;;;;;;;3.30;1.90;;;;;;;13.38;100.00;98705.38;105568;1252;61358;-55
2024/04/15 15:58:16;;;;;;;4.50;1.80;;;;;;;13.30;100.00;98692.13;104824;1265;61256;-55
2024/04/15 16:00:43;;;;;;;2.40;1.40;;;;;;;13.27;100.00;98677.05;104681;1252;73380;-55
2024/04/15 16:03:11;;;;;;;1.60;1.20;;;;;;;13.21;100.00;98666.89;104965;1257;68410;-54
2024/04/15 16:05:39;;;;;;;3.10;2.00;;;;;;;13.28;100.00;98671.33;105234;1255;71360;-54
2024/04/15 16:08:07;;;;;;;4.10;1.90;;;;;;;13.31;100.00;98677.15;104662;1275;61744;-56
2024/04/15 16:10:35;;;;;;;2.50;1.80;;;;;;;13.25;100.00;98671.69;104633;1260;61305;-54
2024/04/15 16:13:03;;;;;;;3.90;1.70;;;;;;;13.24;100.00;98669.84;104450;1256;73460;-54
2024/04/15 16:15:31;;;;;;;3.20;1.60;;;;;;;13.25;100.00;98687.54;105031;1254;69462;-54
2024/04/15 16:17:58;;;;;;;3.30;1.90;;;;;;;13.22;100.00;98695.31;104473;1275;72786;-54
2024/04/15 16:20:26;;;;;;;4.00;2.00;;;;;;;13.20;100.00;98685.23;105517;1256;61856;-54
2024/04/15 16:22:54;;;;;;;5.70;2.20;;;;;;;13.16;100.00;98675.13;104958;1256;61332;-55
2024/04/15 16:25:22;;;;;;;3.40;1.60;;;;;;;13.12;100.00;98678.21;104642;1257;75550;-54
2024/04/15 16:27:51;;;;;;;7.30;2.20;;;;;;;13.05;100.00;98687.66;105169;1257;68169;-53
2024/04/15 16:30:18;;;;;;;5.20;1.90;;;;;;;13.01;100.00;98702.20;105920;1254;75782;-53
2024/04/15 16:32:46;;;;;;;7.10;5.00;;;;;;;12.89;100.00;98706.16;104819;1257;63456;-54
2024/04/15 16:35:14;;;;;;;11.70;4.90;;;;;;;12.93;100.00;98694.50;105165;1253;62122;-53
2024/04/15 16:37:42;;;;;;;7.60;4.70;;;;;;;12.95;100.00;98697.52;105467;1253;76456;-54
2024/04/15 16:40:09;;;;;;;;;;;;;;;12.94;100.00;98691.79;104517;1270;71378;-54
2024/04/15 16:42:37;;;;;;;11.00;6.50;;;;;;;12.91;100.00;98676.16;105430;1256;74699;-55
2024/04/15 16:45:05;;;;;;;14.30;7.50;;;;;;;12.91;100.00;98664.89;105131;1257;63516;-53
2024/04/15 16:47:33;;;;;;;9.30;6.40;;;;;;;12.88;100.00;98661.06;105020;1255;62595;-54
2024/04/15 16:50:01;;;;;;;9.40;6.00;;;;;;;12.91;100.00;98675.81;105150;1257;76855;-54
2024/04/15 16:52:28;;;;;;;9.10;6.50;;;;;;;12.86;100.00;98691.09;104985;1257;72145;-54
2024/04/15 16:54:57;;;;;;;;;;;;;;;12.81;100.00;98699.99;104561;1257;74626;-55
2024/04/15 16:57:25;;;;;;;7.50;3.80;;;;;;;12.82;100.00;98695.38;105321;1254;62373;-56
2024/04/15 16:59:52;;;;;;;6.50;3.70;;;;;;;12.81;100.00;98680.67;105186;1254;61544;-53
2024/04/15 17:02:20;;;;;;;6.70;3.40;;;;;;;12.85;100.00;98685.17;105291;1253;74780;-54
2024/04/15 17:04:48;;;;;;;6.60;2.80;;;;;;;12.83;100.00;98696.36;105193;1254;69541;-53
2024/04/15 17:07:15;;;;;;;3.90;2.80;;;;;;;12.68;100.00;98700.35;105256;1255;76256;-53
2024/04/15 17:09:43;;;;;;;6.50;2.60;;;;;;;12.60;100.00;98679.48;106115;1254;63733;-53
2024/04/15 17:12:11;;;;;;;6.90;3.10;;;;;;;12.58;100.00;98697.17;105647;1251;62351;-53
2024/04/15 17:14:38;;;;;;;7.30;3.50;;;;;;;12.49;100.00;98716.04;104780;1258;75687;-53
2024/04/15 17:17:06;;;;;;;;;;;;;;;12.24;100.00;98690.20;104516;1258;71487;-53